sensor_id;sensor_type;location;lat;lon;timestamp;pressure;altitude;pressure_sealevel;temperature;humidity
59545;BME280;45368;55.002;-1.592;2023-01-27T00:01:54;102678.48;;;4.59;69.63
59545;BME280;45368;55.002;-1.592;2023-01-27T00:04:27;102685.37;;;3.61;72.37
59545;BME280;45368;55.002;-1.592;2023-01-27T00:06:54;102676.73;;;4.49;70.01
59545;BME280;45368;55.002;-1.592;2023-01-27T00:09:21;102680.38;;;3.75;70.47
59545;BME280;45368;55.002;-1.592;2023-01-27T00:11:48;102684.13;;;3.38;72.41
59545;BME280;45368;55.002;-1.592;2023-01-27T00:14:16;102679.12;;;4.83;68.47
59545;BME280;45368;55.002;-1.592;2023-01-27T00:16:43;102683.71;;;4.79;68.69
59545;BME280;45368;55.002;-1.592;2023-01-27T00:19:20;102684.34;;;4.09;70.55
59545;BME280;45368;55.002;-1.592;2023-01-27T00:21:47;102681.51;;;3.55;72.41
59545;BME280;45368;55.002;-1.592;2023-01-27T00:24:26;102676.42;;;4.90;69.60
59545;BME280;45368;55.002;-1.592;2023-01-27T00:26:53;102667.32;;;4.72;69.16
59545;BME280;45368;55.002;-1.592;2023-01-27T00:29:20;102673.07;;;3.95;71.02
59545;BME280;45368;55.002;-1.592;2023-01-27T00:31:48;102672.40;;;3.55;72.78
59545;BME280;45368;55.002;-1.592;2023-01-27T00:34:25;102669.22;;;4.98;69.86
59545;BME280;45368;55.002;-1.592;2023-01-27T00:36:54;102666.21;;;4.88;67.94
59545;BME280;45368;55.002;-1.592;2023-01-27T00:39:32;102666.94;;;4.08;70.23
59545;BME280;45368;55.002;-1.592;2023-01-27T00:42:11;102664.89;;;4.75;69.59
59545;BME280;45368;55.002;-1.592;2023-01-27T00:44:38;102668.17;;;3.84;71.64
59545;BME280;45368;55.002;-1.592;2023-01-27T00:47:06;102666.93;;;3.71;72.54
59545;BME280;45368;55.002;-1.592;2023-01-27T00:49:33;102658.43;;;4.22;71.12
59545;BME280;45368;55.002;-1.592;2023-01-27T00:52:01;102661.17;;;3.84;72.03
59545;BME280;45368;55.002;-1.592;2023-01-27T00:54:28;102656.18;;;4.24;71.08
59545;BME280;45368;55.002;-1.592;2023-01-27T00:57:09;102657.03;;;4.10;70.43
59545;BME280;45368;55.002;-1.592;2023-01-27T00:59:36;102658.78;;;3.93;71.53
59545;BME280;45368;55.002;-1.592;2023-01-27T01:02:04;102657.92;;;5.18;68.87
59545;BME280;45368;55.002;-1.592;2023-01-27T01:04:30;102657.08;;;5.21;67.08
59545;BME280;45368;55.002;-1.592;2023-01-27T01:07:06;102664.30;;;4.14;69.73
59545;BME280;45368;55.002;-1.592;2023-01-27T01:09:38;102661.36;;;4.54;70.18
59545;BME280;45368;55.002;-1.592;2023-01-27T01:12:05;102658.38;;;3.75;73.21
59545;BME280;45368;55.002;-1.592;2023-01-27T01:14:32;102656.53;;;3.97;71.79
59545;BME280;45368;55.002;-1.592;2023-01-27T01:17:08;102662.04;;;3.33;73.52
59545;BME280;45368;55.002;-1.592;2023-01-27T01:19:46;102664.67;;;2.61;77.31
59545;BME280;45368;55.002;-1.592;2023-01-27T01:22:14;102664.22;;;3.74;73.78
59545;BME280;45368;55.002;-1.592;2023-01-27T01:24:47;102664.32;;;3.07;75.07
59545;BME280;45368;55.002;-1.592;2023-01-27T01:27:14;102665.82;;;2.93;75.86
59545;BME280;45368;55.002;-1.592;2023-01-27T01:29:42;102668.53;;;3.52;73.97
59545;BME280;45368;55.002;-1.592;2023-01-27T01:32:17;102659.18;;;4.09;70.73
59545;BME280;45368;55.002;-1.592;2023-01-27T01:34:56;102656.10;;;4.34;70.98
59545;BME280;45368;55.002;-1.592;2023-01-27T01:37:31;102656.82;;;3.66;72.33
59545;BME280;45368;55.002;-1.592;2023-01-27T01:39:58;102654.60;;;4.61;70.64
59545;BME280;45368;55.002;-1.592;2023-01-27T01:42:25;102649.25;;;4.62;68.23
59545;BME280;45368;55.002;-1.592;2023-01-27T01:46:17;102649.75;;;5.17;66.64
59545;BME280;45368;55.002;-1.592;2023-01-27T01:48:52;102642.45;;;5.82;65.74
59545;BME280;45368;55.002;-1.592;2023-01-27T01:51:23;102646.37;;;4.82;67.08
59545;BME280;45368;55.002;-1.592;2023-01-27T01:54:02;102638.90;;;5.65;65.80
59545;BME280;45368;55.002;-1.592;2023-01-27T01:56:34;102644.94;;;5.01;66.84
59545;BME280;45368;55.002;-1.592;2023-01-27T01:59:04;102645.14;;;4.94;67.01
59545;BME280;45368;55.002;-1.592;2023-01-27T02:01:34;102643.28;;;5.14;66.24
59545;BME280;45368;55.002;-1.592;2023-01-27T02:04:04;102645.14;;;4.45;67.69
59545;BME280;45368;55.002;-1.592;2023-01-27T02:06:44;102643.68;;;4.38;68.08
59545;BME280;45368;55.002;-1.592;2023-01-27T02:09:16;102640.42;;;4.88;67.23
59545;BME280;45368;55.002;-1.592;2023-01-27T02:11:44;102640.48;;;4.96;66.92
59545;BME280;45368;55.002;-1.592;2023-01-27T02:14:13;102644.72;;;3.94;69.61
59545;BME280;45368;55.002;-1.592;2023-01-27T02:16:41;102639.15;;;3.76;70.78
59545;BME280;45368;55.002;-1.592;2023-01-27T02:19:19;102637.10;;;2.82;73.05
59545;BME280;45368;55.002;-1.592;2023-01-27T02:22:03;102638.63;;;3.01;74.31
59545;BME280;45368;55.002;-1.592;2023-01-27T02:24:38;102643.66;;;3.14;73.75
59545;BME280;45368;55.002;-1.592;2023-01-27T02:27:25;102639.11;;;3.62;72.76
59545;BME280;45368;55.002;-1.592;2023-01-27T02:29:52;102636.60;;;4.12;70.48
59545;BME280;45368;55.002;-1.592;2023-01-27T02:32:22;102632.83;;;4.78;67.74
59545;BME280;45368;55.002;-1.592;2023-01-27T02:34:50;102624.80;;;4.71;66.95
59545;BME280;45368;55.002;-1.592;2023-01-27T02:37:18;102618.60;;;5.51;64.79
59545;BME280;45368;55.002;-1.592;2023-01-27T02:39:49;102618.63;;;5.68;64.32
59545;BME280;45368;55.002;-1.592;2023-01-27T02:42:18;102616.84;;;6.46;62.42
59545;BME280;45368;55.002;-1.592;2023-01-27T02:44:46;102621.79;;;5.87;63.43
59545;BME280;45368;55.002;-1.592;2023-01-27T02:47:15;102615.99;;;5.90;63.14
59545;BME280;45368;55.002;-1.592;2023-01-27T02:49:42;102617.06;;;5.11;64.94
59545;BME280;45368;55.002;-1.592;2023-01-27T02:52:09;102613.49;;;5.17;64.84
59545;BME280;45368;55.002;-1.592;2023-01-27T02:54:36;102614.43;;;5.17;65.64
59545;BME280;45368;55.002;-1.592;2023-01-27T02:57:03;102616.37;;;5.01;65.30
59545;BME280;45368;55.002;-1.592;2023-01-27T02:59:30;102623.18;;;3.63;70.08
59545;BME280;45368;55.002;-1.592;2023-01-27T03:01:57;102622.06;;;3.36;71.71
59545;BME280;45368;55.002;-1.592;2023-01-27T03:04:25;102623.25;;;3.11;72.98
59545;BME280;45368;55.002;-1.592;2023-01-27T03:06:58;102621.94;;;2.47;74.47
59545;BME280;45368;55.002;-1.592;2023-01-27T03:09:25;102617.67;;;3.73;71.55
59545;BME280;45368;55.002;-1.592;2023-01-27T03:11:51;102614.09;;;3.83;69.66
59545;BME280;45368;55.002;-1.592;2023-01-27T03:14:18;102605.78;;;4.56;68.14
59545;BME280;45368;55.002;-1.592;2023-01-27T03:16:45;102601.59;;;5.07;66.20
59545;BME280;45368;55.002;-1.592;2023-01-27T03:19:13;102604.56;;;3.79;69.25
59545;BME280;45368;55.002;-1.592;2023-01-27T03:21:45;102599.91;;;4.31;67.23
59545;BME280;45368;55.002;-1.592;2023-01-27T03:24:12;102600.31;;;4.42;67.68
59545;BME280;45368;55.002;-1.592;2023-01-27T03:26:39;102603.79;;;3.11;70.94
59545;BME280;45368;55.002;-1.592;2023-01-27T03:29:06;102602.81;;;3.63;70.39
59545;BME280;45368;55.002;-1.592;2023-01-27T03:31:34;102598.06;;;4.53;67.46
59545;BME280;45368;55.002;-1.592;2023-01-27T03:34:01;102599.54;;;4.05;67.97
59545;BME280;45368;55.002;-1.592;2023-01-27T03:36:28;102600.32;;;4.31;66.58
59545;BME280;45368;55.002;-1.592;2023-01-27T03:38:55;102593.64;;;5.25;64.03
59545;BME280;45368;55.002;-1.592;2023-01-27T03:41:22;102592.42;;;5.93;62.90
59545;BME280;45368;55.002;-1.592;2023-01-27T03:43:50;102594.83;;;5.38;63.70
59545;BME280;45368;55.002;-1.592;2023-01-27T03:46:18;102594.39;;;4.89;63.44
59545;BME280;45368;55.002;-1.592;2023-01-27T03:48:48;102601.71;;;4.00;67.20
59545;BME280;45368;55.002;-1.592;2023-01-27T03:51:16;102605.33;;;3.51;68.02
59545;BME280;45368;55.002;-1.592;2023-01-27T03:53:44;102600.62;;;4.51;65.18
59545;BME280;45368;55.002;-1.592;2023-01-27T03:56:13;102596.03;;;4.94;64.71
59545;BME280;45368;55.002;-1.592;2023-01-27T03:58:40;102595.06;;;5.93;62.49
59545;BME280;45368;55.002;-1.592;2023-01-27T04:01:15;102599.07;;;4.60;64.47
59545;BME280;45368;55.002;-1.592;2023-01-27T04:03:43;102589.21;;;5.75;62.18
59545;BME280;45368;55.002;-1.592;2023-01-27T04:06:12;102591.45;;;4.32;64.83
59545;BME280;45368;55.002;-1.592;2023-01-27T04:08:41;102583.47;;;5.15;63.19
59545;BME280;45368;55.002;-1.592;2023-01-27T04:11:08;102581.71;;;5.35;63.19
59545;BME280;45368;55.002;-1.592;2023-01-27T04:13:35;102581.34;;;4.46;64.84
59545;BME280;45368;55.002;-1.592;2023-01-27T04:16:02;102579.72;;;4.64;65.75
59545;BME280;45368;55.002;-1.592;2023-01-27T04:18:29;102585.86;;;4.13;66.98
59545;BME280;45368;55.002;-1.592;2023-01-27T04:20:56;102582.93;;;3.84;67.65
59545;BME280;45368;55.002;-1.592;2023-01-27T04:23:23;102581.38;;;4.25;66.63
59545;BME280;45368;55.002;-1.592;2023-01-27T04:25:50;102580.59;;;3.89;67.75
59545;BME280;45368;55.002;-1.592;2023-01-27T04:28:18;102579.31;;;4.29;67.36
59545;BME280;45368;55.002;-1.592;2023-01-27T04:31:05;102575.51;;;4.14;67.31
59545;BME280;45368;55.002;-1.592;2023-01-27T04:33:32;102574.30;;;4.05;67.90
59545;BME280;45368;55.002;-1.592;2023-01-27T04:35:59;102576.72;;;3.14;69.84
59545;BME280;45368;55.002;-1.592;2023-01-27T04:38:26;102576.16;;;3.20;70.64
59545;BME280;45368;55.002;-1.592;2023-01-27T04:40:53;102581.01;;;2.83;71.46
59545;BME280;45368;55.002;-1.592;2023-01-27T04:43:21;102579.42;;;3.56;70.41
59545;BME280;45368;55.002;-1.592;2023-01-27T04:45:47;102580.20;;;3.11;70.54
59545;BME280;45368;55.002;-1.592;2023-01-27T04:48:14;102571.05;;;3.90;68.25
59545;BME280;45368;55.002;-1.592;2023-01-27T04:50:41;102570.70;;;3.17;69.43
59545;BME280;45368;55.002;-1.592;2023-01-27T04:53:09;102574.02;;;2.44;71.05
59545;BME280;45368;55.002;-1.592;2023-01-27T04:55:37;102574.62;;;3.16;69.98
59545;BME280;45368;55.002;-1.592;2023-01-27T04:58:04;102567.80;;;3.54;68.54
59545;BME280;45368;55.002;-1.592;2023-01-27T05:00:31;102568.85;;;2.79;70.31
59545;BME280;45368;55.002;-1.592;2023-01-27T05:02:58;102568.96;;;3.45;69.33
59545;BME280;45368;55.002;-1.592;2023-01-27T05:05:26;102572.51;;;2.03;72.18
59545;BME280;45368;55.002;-1.592;2023-01-27T05:08:02;102568.70;;;2.38;72.95
59545;BME280;45368;55.002;-1.592;2023-01-27T05:10:29;102569.12;;;2.97;71.22
59545;BME280;45368;55.002;-1.592;2023-01-27T05:12:56;102569.64;;;3.15;69.98
59545;BME280;45368;55.002;-1.592;2023-01-27T05:15:24;102572.24;;;3.25;69.87
59545;BME280;45368;55.002;-1.592;2023-01-27T05:17:58;102572.08;;;3.63;68.54
59545;BME280;45368;55.002;-1.592;2023-01-27T05:20:30;102576.28;;;3.57;68.78
59545;BME280;45368;55.002;-1.592;2023-01-27T05:22:57;102577.92;;;3.32;69.02
59545;BME280;45368;55.002;-1.592;2023-01-27T05:25:30;102570.38;;;4.59;65.21
59545;BME280;45368;55.002;-1.592;2023-01-27T05:27:57;102571.09;;;4.49;64.47
59545;BME280;45368;55.002;-1.592;2023-01-27T05:30:24;102566.30;;;5.53;62.59
59545;BME280;45368;55.002;-1.592;2023-01-27T05:32:51;102569.19;;;5.72;61.93
59545;BME280;45368;55.002;-1.592;2023-01-27T05:35:24;102562.20;;;5.99;61.16
59545;BME280;45368;55.002;-1.592;2023-01-27T05:37:51;102559.94;;;6.63;59.63
59545;BME280;45368;55.002;-1.592;2023-01-27T05:40:18;102568.37;;;5.44;61.01
59545;BME280;45368;55.002;-1.592;2023-01-27T05:42:46;102572.86;;;5.39;61.69
59545;BME280;45368;55.002;-1.592;2023-01-27T05:45:13;102581.33;;;4.83;62.53
59545;BME280;45368;55.002;-1.592;2023-01-27T05:47:48;102583.68;;;3.67;65.59
59545;BME280;45368;55.002;-1.592;2023-01-27T05:50:16;102585.45;;;3.53;66.27
59545;BME280;45368;55.002;-1.592;2023-01-27T05:52:43;102585.22;;;4.09;64.78
59545;BME280;45368;55.002;-1.592;2023-01-27T05:55:11;102577.35;;;4.94;62.82
59545;BME280;45368;55.002;-1.592;2023-01-27T05:57:38;102584.17;;;4.22;64.47
59545;BME280;45368;55.002;-1.592;2023-01-27T06:00:06;102585.29;;;4.39;64.12
59545;BME280;45368;55.002;-1.592;2023-01-27T06:02:33;102576.11;;;5.46;61.28
59545;BME280;45368;55.002;-1.592;2023-01-27T06:05:02;102577.95;;;4.93;61.66
59545;BME280;45368;55.002;-1.592;2023-01-27T06:07:30;102573.67;;;5.25;60.65
59545;BME280;45368;55.002;-1.592;2023-01-27T06:10:03;102568.56;;;6.15;59.42
59545;BME280;45368;55.002;-1.592;2023-01-27T06:12:30;102567.48;;;5.72;60.15
59545;BME280;45368;55.002;-1.592;2023-01-27T06:15:12;102567.10;;;6.37;58.19
59545;BME280;45368;55.002;-1.592;2023-01-27T06:17:40;102570.95;;;6.20;59.04
59545;BME280;45368;55.002;-1.592;2023-01-27T06:20:08;102567.05;;;5.80;59.52
59545;BME280;45368;55.002;-1.592;2023-01-27T06:22:35;102566.82;;;6.14;58.65
59545;BME280;45368;55.002;-1.592;2023-01-27T06:25:04;102567.79;;;5.66;59.59
59545;BME280;45368;55.002;-1.592;2023-01-27T06:27:32;102570.91;;;5.78;59.38
59545;BME280;45368;55.002;-1.592;2023-01-27T06:30:01;102571.35;;;5.94;59.63
59545;BME280;45368;55.002;-1.592;2023-01-27T06:32:35;102574.68;;;6.11;59.19
59545;BME280;45368;55.002;-1.592;2023-01-27T06:35:03;102578.76;;;6.32;58.41
59545;BME280;45368;55.002;-1.592;2023-01-27T06:37:30;102586.06;;;5.16;61.05
59545;BME280;45368;55.002;-1.592;2023-01-27T06:39:57;102587.73;;;5.18;60.84
59545;BME280;45368;55.002;-1.592;2023-01-27T06:42:24;102589.82;;;4.87;62.14
59545;BME280;45368;55.002;-1.592;2023-01-27T06:44:51;102589.76;;;5.37;61.44
59545;BME280;45368;55.002;-1.592;2023-01-27T06:47:18;102584.49;;;5.72;60.49
59545;BME280;45368;55.002;-1.592;2023-01-27T06:49:51;102582.91;;;5.29;60.68
59545;BME280;45368;55.002;-1.592;2023-01-27T06:52:24;102591.89;;;4.26;62.44
59545;BME280;45368;55.002;-1.592;2023-01-27T06:54:51;102599.52;;;4.60;63.02
59545;BME280;45368;55.002;-1.592;2023-01-27T06:57:18;102606.08;;;3.46;65.87
59545;BME280;45368;55.002;-1.592;2023-01-27T06:59:45;102605.41;;;3.51;66.37
59545;BME280;45368;55.002;-1.592;2023-01-27T07:02:12;102608.97;;;3.83;66.41
59545;BME280;45368;55.002;-1.592;2023-01-27T07:04:53;102615.66;;;3.14;68.25
59545;BME280;45368;55.002;-1.592;2023-01-27T07:07:21;102616.42;;;2.83;69.32
59545;BME280;45368;55.002;-1.592;2023-01-27T07:09:54;102617.43;;;2.85;69.39
59545;BME280;45368;55.002;-1.592;2023-01-27T07:12:27;102611.47;;;2.89;68.60
59545;BME280;45368;55.002;-1.592;2023-01-27T07:14:54;102610.57;;;3.00;68.11
59545;BME280;45368;55.002;-1.592;2023-01-27T07:17:21;102613.08;;;3.44;67.17
59545;BME280;45368;55.002;-1.592;2023-01-27T07:19:48;102614.81;;;2.69;68.48
59545;BME280;45368;55.002;-1.592;2023-01-27T07:22:16;102611.37;;;2.73;68.95
59545;BME280;45368;55.002;-1.592;2023-01-27T07:24:42;102612.69;;;3.46;68.40
59545;BME280;45368;55.002;-1.592;2023-01-27T07:27:09;102613.55;;;2.42;69.52
59545;BME280;45368;55.002;-1.592;2023-01-27T07:29:37;102612.17;;;2.84;69.86
59545;BME280;45368;55.002;-1.592;2023-01-27T07:32:04;102610.68;;;2.47;71.22
59545;BME280;45368;55.002;-1.592;2023-01-27T07:34:31;102609.04;;;2.66;69.76
59545;BME280;45368;55.002;-1.592;2023-01-27T07:36:58;102609.76;;;4.08;66.33
59545;BME280;45368;55.002;-1.592;2023-01-27T07:39:26;102611.56;;;3.74;65.98
59545;BME280;45368;55.002;-1.592;2023-01-27T07:41:53;102602.56;;;5.22;63.19
59545;BME280;45368;55.002;-1.592;2023-01-27T07:44:20;102602.81;;;5.54;61.57
59545;BME280;45368;55.002;-1.592;2023-01-27T07:46:46;102600.03;;;5.63;60.25
59545;BME280;45368;55.002;-1.592;2023-01-27T07:49:14;102604.14;;;4.33;62.93
59545;BME280;45368;55.002;-1.592;2023-01-27T07:51:41;102606.89;;;4.81;61.90
59545;BME280;45368;55.002;-1.592;2023-01-27T07:54:08;102601.24;;;5.63;60.59
59545;BME280;45368;55.002;-1.592;2023-01-27T07:56:35;102606.15;;;6.12;59.18
59545;BME280;45368;55.002;-1.592;2023-01-27T07:59:03;102605.42;;;5.92;58.72
59545;BME280;45368;55.002;-1.592;2023-01-27T08:01:31;102612.74;;;6.15;59.16
59545;BME280;45368;55.002;-1.592;2023-01-27T08:03:57;102622.08;;;5.82;58.87
59545;BME280;45368;55.002;-1.592;2023-01-27T08:06:24;102625.05;;;6.12;58.60
59545;BME280;45368;55.002;-1.592;2023-01-27T08:08:51;102622.12;;;6.30;58.67
59545;BME280;45368;55.002;-1.592;2023-01-27T08:11:19;102620.06;;;6.54;57.51
59545;BME280;45368;55.002;-1.592;2023-01-27T08:13:47;102622.56;;;5.97;58.45
59545;BME280;45368;55.002;-1.592;2023-01-27T08:16:15;102622.56;;;6.62;57.31
59545;BME280;45368;55.002;-1.592;2023-01-27T08:18:42;102624.41;;;6.72;56.61
59545;BME280;45368;55.002;-1.592;2023-01-27T08:21:10;102625.30;;;6.14;58.06
59545;BME280;45368;55.002;-1.592;2023-01-27T08:23:38;102619.20;;;6.66;56.95
59545;BME280;45368;55.002;-1.592;2023-01-27T08:26:06;102624.52;;;6.35;57.57
59545;BME280;45368;55.002;-1.592;2023-01-27T08:28:37;102629.67;;;5.75;58.64
59545;BME280;45368;55.002;-1.592;2023-01-27T08:31:07;102622.06;;;5.80;58.38
59545;BME280;45368;55.002;-1.592;2023-01-27T08:33:35;102625.39;;;6.00;57.29
59545;BME280;45368;55.002;-1.592;2023-01-27T08:36:05;102629.94;;;6.61;56.39
59545;BME280;45368;55.002;-1.592;2023-01-27T08:38:33;102635.65;;;6.44;57.11
59545;BME280;45368;55.002;-1.592;2023-01-27T08:41:03;102634.67;;;6.07;58.16
59545;BME280;45368;55.002;-1.592;2023-01-27T08:43:31;102643.06;;;5.99;59.34
59545;BME280;45368;55.002;-1.592;2023-01-27T08:45:59;102642.77;;;5.68;59.55
59545;BME280;45368;55.002;-1.592;2023-01-27T08:48:26;102639.43;;;5.70;59.14
59545;BME280;45368;55.002;-1.592;2023-01-27T08:50:54;102641.86;;;6.20;58.56
59545;BME280;45368;55.002;-1.592;2023-01-27T08:53:22;102634.36;;;6.12;58.45
59545;BME280;45368;55.002;-1.592;2023-01-27T08:55:57;102633.54;;;6.99;56.81
59545;BME280;45368;55.002;-1.592;2023-01-27T08:58:25;102639.24;;;5.68;58.90
59545;BME280;45368;55.002;-1.592;2023-01-27T09:00:52;102637.27;;;6.26;58.37
59545;BME280;45368;55.002;-1.592;2023-01-27T09:03:20;102632.60;;;6.46;58.01
59545;BME280;45368;55.002;-1.592;2023-01-27T09:05:47;102626.76;;;7.03;56.07
59545;BME280;45368;55.002;-1.592;2023-01-27T09:08:14;102631.83;;;6.69;56.31
59545;BME280;45368;55.002;-1.592;2023-01-27T09:10:42;102629.42;;;6.23;56.48
59545;BME280;45368;55.002;-1.592;2023-01-27T09:13:10;102623.57;;;7.21;55.20
59545;BME280;45368;55.002;-1.592;2023-01-27T09:15:37;102623.00;;;7.33;54.54
59545;BME280;45368;55.002;-1.592;2023-01-27T09:18:04;102621.07;;;7.13;55.03
59545;BME280;45368;55.002;-1.592;2023-01-27T09:20:32;102617.70;;;7.46;53.93
59545;BME280;45368;55.002;-1.592;2023-01-27T09:22:59;102614.16;;;6.58;55.49
59545;BME280;45368;55.002;-1.592;2023-01-27T09:25:26;102611.59;;;7.38;53.84
59545;BME280;45368;55.002;-1.592;2023-01-27T09:27:54;102612.32;;;7.84;53.73
59545;BME280;45368;55.002;-1.592;2023-01-27T09:30:23;102612.00;;;6.73;55.13
59545;BME280;45368;55.002;-1.592;2023-01-27T09:32:51;102610.82;;;6.96;54.87
59545;BME280;45368;55.002;-1.592;2023-01-27T09:35:20;102611.97;;;7.39;54.84
59545;BME280;45368;55.002;-1.592;2023-01-27T09:37:51;102614.15;;;6.05;56.57
59545;BME280;45368;55.002;-1.592;2023-01-27T09:40:30;102608.30;;;6.74;56.82
59545;BME280;45368;55.002;-1.592;2023-01-27T09:43:16;102611.99;;;6.16;57.54
59545;BME280;45368;55.002;-1.592;2023-01-27T09:46:22;102610.61;;;6.37;56.46
59545;BME280;45368;55.002;-1.592;2023-01-27T09:49:13;102608.68;;;6.07;56.84
59545;BME280;45368;55.002;-1.592;2023-01-27T09:51:50;102603.10;;;6.17;56.82
59545;BME280;45368;55.002;-1.592;2023-01-27T09:54:29;102598.68;;;6.32;56.19
59545;BME280;45368;55.002;-1.592;2023-01-27T09:57:08;102600.15;;;6.02;56.05
59545;BME280;45368;55.002;-1.592;2023-01-27T09:59:50;102596.10;;;7.53;53.47
59545;BME280;45368;55.002;-1.592;2023-01-27T10:02:34;102587.96;;;8.11;52.74
59545;BME280;45368;55.002;-1.592;2023-01-27T10:05:20;102586.36;;;7.86;52.44
59545;BME280;45368;55.002;-1.592;2023-01-27T10:08:06;102587.31;;;7.76;52.74
59545;BME280;45368;55.002;-1.592;2023-01-27T10:10:52;102588.27;;;7.65;53.51
59545;BME280;45368;55.002;-1.592;2023-01-27T10:13:30;102586.25;;;8.04;52.82
59545;BME280;45368;55.002;-1.592;2023-01-27T10:16:22;102589.04;;;7.98;52.79
59545;BME280;45368;55.002;-1.592;2023-01-27T10:19:09;102594.52;;;7.20;54.53
59545;BME280;45368;55.002;-1.592;2023-01-27T10:21:47;102588.74;;;6.78;56.21
59545;BME280;45368;55.002;-1.592;2023-01-27T10:24:30;102591.13;;;7.53;54.30
59545;BME280;45368;55.002;-1.592;2023-01-27T10:27:04;102585.87;;;7.40;54.32
59545;BME280;45368;55.002;-1.592;2023-01-27T10:29:37;102583.48;;;7.00;54.76
59545;BME280;45368;55.002;-1.592;2023-01-27T10:32:08;102587.91;;;6.13;57.47
59545;BME280;45368;55.002;-1.592;2023-01-27T10:34:42;102587.92;;;6.09;57.92
59545;BME280;45368;55.002;-1.592;2023-01-27T10:37:25;102587.62;;;5.78;58.57
59545;BME280;45368;55.002;-1.592;2023-01-27T10:40:01;102585.23;;;5.73;58.83
59545;BME280;45368;55.002;-1.592;2023-01-27T10:42:37;102573.93;;;5.74;58.21
59545;BME280;45368;55.002;-1.592;2023-01-27T10:45:17;102569.06;;;5.75;59.78
59545;BME280;45368;55.002;-1.592;2023-01-27T10:47:59;102567.69;;;5.61;58.91
59545;BME280;45368;55.002;-1.592;2023-01-27T10:50:38;102557.56;;;6.47;57.74
59545;BME280;45368;55.002;-1.592;2023-01-27T10:53:12;102552.76;;;6.33;56.95
59545;BME280;45368;55.002;-1.592;2023-01-27T10:55:48;102552.83;;;6.85;55.99
59545;BME280;45368;55.002;-1.592;2023-01-27T10:58:30;102548.04;;;6.95;55.08
59545;BME280;45368;55.002;-1.592;2023-01-27T11:00:58;102549.84;;;6.99;54.33
59545;BME280;45368;55.002;-1.592;2023-01-27T11:03:30;102554.19;;;7.20;53.57
59545;BME280;45368;55.002;-1.592;2023-01-27T11:06:03;102557.19;;;6.75;55.20
59545;BME280;45368;55.002;-1.592;2023-01-27T11:08:36;102547.48;;;7.65;52.80
59545;BME280;45368;55.002;-1.592;2023-01-27T11:11:07;102543.23;;;8.29;52.53
59545;BME280;45368;55.002;-1.592;2023-01-27T11:13:36;102539.59;;;8.29;50.69
59545;BME280;45368;55.002;-1.592;2023-01-27T11:16:11;102539.85;;;8.58;49.62
59545;BME280;45368;55.002;-1.592;2023-01-27T11:18:41;102526.11;;;10.06;47.08
59545;BME280;45368;55.002;-1.592;2023-01-27T11:21:11;102521.72;;;10.63;46.16
59545;BME280;45368;55.002;-1.592;2023-01-27T11:23:43;102528.76;;;9.09;47.07
59545;BME280;45368;55.002;-1.592;2023-01-27T11:26:23;102524.46;;;9.62;47.24
59545;BME280;45368;55.002;-1.592;2023-01-27T11:28:58;102524.94;;;10.40;45.63
59545;BME280;45368;55.002;-1.592;2023-01-27T11:31:34;102519.99;;;12.51;42.00
59545;BME280;45368;55.002;-1.592;2023-01-27T11:34:09;102513.43;;;12.18;41.84
59545;BME280;45368;55.002;-1.592;2023-01-27T11:36:38;102509.50;;;13.09;39.35
59545;BME280;45368;55.002;-1.592;2023-01-27T11:39:09;102503.29;;;12.35;40.42
59545;BME280;45368;55.002;-1.592;2023-01-27T11:41:38;102491.67;;;13.80;39.72
59545;BME280;45368;55.002;-1.592;2023-01-27T11:44:18;102485.69;;;14.75;37.25
59545;BME280;45368;55.002;-1.592;2023-01-27T11:46:47;102496.93;;;11.45;41.48
59545;BME280;45368;55.002;-1.592;2023-01-27T11:49:20;102492.14;;;10.80;44.50
59545;BME280;45368;55.002;-1.592;2023-01-27T11:51:48;102485.43;;;13.06;40.47
59545;BME280;45368;55.002;-1.592;2023-01-27T11:54:20;102485.24;;;14.29;37.95
59545;BME280;45368;55.002;-1.592;2023-01-27T11:56:49;102495.05;;;12.06;40.24
59545;BME280;45368;55.002;-1.592;2023-01-27T11:59:20;102497.07;;;12.36;41.14
59545;BME280;45368;55.002;-1.592;2023-01-27T12:01:52;102495.30;;;10.27;43.85
59545;BME280;45368;55.002;-1.592;2023-01-27T12:07:09;102498.81;;;9.47;45.49
59545;BME280;45368;55.002;-1.592;2023-01-27T12:09:41;102501.57;;;8.62;47.28
59545;BME280;45368;55.002;-1.592;2023-01-27T12:12:13;102504.40;;;7.56;50.31
59545;BME280;45368;55.002;-1.592;2023-01-27T12:14:48;102500.88;;;7.91;49.34
59545;BME280;45368;55.002;-1.592;2023-01-27T12:17:23;102498.05;;;7.34;50.72
59545;BME280;45368;55.002;-1.592;2023-01-27T12:19:55;102489.10;;;7.25;52.35
59545;BME280;45368;55.002;-1.592;2023-01-27T12:22:26;102481.00;;;7.64;51.59
59545;BME280;45368;55.002;-1.592;2023-01-27T12:24:57;102477.01;;;6.98;52.33
59545;BME280;45368;55.002;-1.592;2023-01-27T12:27:29;102476.26;;;6.17;54.73
59545;BME280;45368;55.002;-1.592;2023-01-27T12:30:00;102465.80;;;5.39;56.50
59545;BME280;45368;55.002;-1.592;2023-01-27T12:32:40;102462.97;;;6.18;54.12
59545;BME280;45368;55.002;-1.592;2023-01-27T12:35:20;102462.59;;;6.36;54.61
59545;BME280;45368;55.002;-1.592;2023-01-27T12:37:54;102457.23;;;6.76;54.30
59545;BME280;45368;55.002;-1.592;2023-01-27T12:40:24;102450.99;;;6.77;53.33
59545;BME280;45368;55.002;-1.592;2023-01-27T12:43:08;102450.78;;;7.23;52.13
59545;BME280;45368;55.002;-1.592;2023-01-27T12:45:36;102443.67;;;7.64;50.95
59545;BME280;45368;55.002;-1.592;2023-01-27T12:48:16;102439.85;;;7.68;51.39
59545;BME280;45368;55.002;-1.592;2023-01-27T12:50:54;102441.03;;;6.92;51.70
59545;BME280;45368;55.002;-1.592;2023-01-27T12:53:23;102441.45;;;6.40;54.88
59545;BME280;45368;55.002;-1.592;2023-01-27T12:55:53;102441.84;;;6.45;54.42
59545;BME280;45368;55.002;-1.592;2023-01-27T12:58:33;102441.87;;;6.89;52.06
59545;BME280;45368;55.002;-1.592;2023-01-27T13:01:03;102441.37;;;6.49;53.80
59545;BME280;45368;55.002;-1.592;2023-01-27T13:03:35;102438.48;;;6.77;52.81
59545;BME280;45368;55.002;-1.592;2023-01-27T13:06:04;102435.11;;;6.91;53.48
59545;BME280;45368;55.002;-1.592;2023-01-27T13:08:33;102428.64;;;6.23;54.34
59545;BME280;45368;55.002;-1.592;2023-01-27T13:11:04;102419.91;;;6.35;54.14
59545;BME280;45368;55.002;-1.592;2023-01-27T13:13:48;102412.35;;;7.20;52.06